createdAt,value
2023-05-23T00:00:26.794Z,14.70
2023-05-23T00:02:55.368Z,14.70
2023-05-23T00:05:24.161Z,14.70
2023-05-23T00:07:52.423Z,14.80
2023-05-23T00:10:20.864Z,14.70
2023-05-23T00:12:50.516Z,14.70
2023-05-23T00:15:19.143Z,14.70
2023-05-23T00:17:48.428Z,14.80
2023-05-23T00:20:16.953Z,14.70
2023-05-23T00:22:48.273Z,14.70
2023-05-23T00:25:16.645Z,14.80
2023-05-23T00:27:44.894Z,14.80
2023-05-23T00:30:14.980Z,14.70
2023-05-23T00:32:43.613Z,14.70
2023-05-23T00:35:12.041Z,14.80
2023-05-23T00:37:40.573Z,14.70
2023-05-23T00:40:10.171Z,14.70
2023-05-23T00:42:38.614Z,14.70
2023-05-23T00:45:08.195Z,14.70
2023-05-23T00:47:37.959Z,14.80
2023-05-23T00:50:08.634Z,14.70
2023-05-23T00:52:37.716Z,14.80
2023-05-23T00:55:08.525Z,14.90
2023-05-23T00:57:40.367Z,14.80
2023-05-23T01:00:10.652Z,14.80
2023-05-23T01:02:45.146Z,14.70
2023-05-23T01:05:17.669Z,14.70
2023-05-23T01:07:46.790Z,14.70
2023-05-23T01:10:16.246Z,14.70
2023-05-23T01:12:53.911Z,14.80
2023-05-23T01:15:26.770Z,14.80
2023-05-23T01:18:04.099Z,14.70
2023-05-23T01:20:37.196Z,14.60
2023-05-23T01:24:02.587Z,14.50
2023-05-23T01:26:41.820Z,14.40
2023-05-23T01:29:15.792Z,14.40
2023-05-23T01:31:46.994Z,14.30
2023-05-23T01:34:17.109Z,14.20
2023-05-23T01:36:46.714Z,14.30
2023-05-23T01:39:15.052Z,14.40
2023-05-23T01:41:43.574Z,14.40
2023-05-23T01:44:13.365Z,14.30
2023-05-23T01:46:42.293Z,14.30
2023-05-23T01:49:14.967Z,14.40
2023-05-23T01:51:44.060Z,14.40
2023-05-23T01:54:14.399Z,14.60
2023-05-23T01:56:43.087Z,14.50
2023-05-23T01:59:13.306Z,14.60
2023-05-23T02:01:42.664Z,14.70
2023-05-23T02:04:11.170Z,14.70
2023-05-23T02:06:39.479Z,14.60
2023-05-23T02:09:08.458Z,14.60
2023-05-23T02:11:36.992Z,14.70
2023-05-23T02:14:05.826Z,14.70
2023-05-23T02:16:36.654Z,14.80
2023-05-23T02:19:05.437Z,14.90
2023-05-23T02:21:35.583Z,15.00
2023-05-23T02:24:05.258Z,14.90
2023-05-23T02:26:33.622Z,14.90
2023-05-23T02:29:01.942Z,14.80
2023-05-23T02:31:30.735Z,14.80
2023-05-23T02:34:00.487Z,14.70
2023-05-23T02:36:28.909Z,14.60
2023-05-23T02:38:57.527Z,14.60
2023-05-23T02:41:25.979Z,14.50
2023-05-23T02:43:54.550Z,14.50
2023-05-23T02:46:23.248Z,14.60
2023-05-23T02:48:51.708Z,14.60
2023-05-23T02:51:21.621Z,14.60
2023-05-23T02:53:50.035Z,14.60
2023-05-23T02:56:18.917Z,14.80
2023-05-23T02:58:47.307Z,14.80
2023-05-23T03:01:16.224Z,14.70
2023-05-23T03:03:44.620Z,14.60
2023-05-23T03:06:14.633Z,14.60
2023-05-23T03:08:44.835Z,14.60
2023-05-23T03:11:13.168Z,14.60
2023-05-23T03:13:41.479Z,14.60
2023-05-23T03:16:09.865Z,14.50
2023-05-23T03:18:38.151Z,14.50
2023-05-23T03:21:06.582Z,14.50
2023-05-23T03:23:35.044Z,14.70
2023-05-23T03:26:06.776Z,14.70
2023-05-23T03:28:35.175Z,14.50
2023-05-23T03:31:03.506Z,14.60
2023-05-23T03:33:32.739Z,14.70
2023-05-23T03:36:01.085Z,14.60
2023-05-23T03:38:29.478Z,14.60
2023-05-23T03:40:57.839Z,14.60
2023-05-23T03:43:28.017Z,14.50
2023-05-23T03:45:56.418Z,14.50
2023-05-23T03:48:24.708Z,14.60
2023-05-23T03:50:53.457Z,14.60
2023-05-23T03:53:22.623Z,14.50
2023-05-23T03:55:50.971Z,14.50
2023-05-23T03:58:19.276Z,14.50
2023-05-23T04:00:53.054Z,14.50
2023-05-23T04:03:22.506Z,14.50
2023-05-23T04:05:52.052Z,14.60
2023-05-23T04:08:22.151Z,14.50
2023-05-23T04:10:52.596Z,14.40
2023-05-23T04:13:23.230Z,14.40
2023-05-23T04:15:53.323Z,14.40
2023-05-23T04:18:22.166Z,14.40
2023-05-23T04:20:50.951Z,14.40
2023-05-23T04:23:19.581Z,14.40
2023-05-23T04:25:51.610Z,14.40
2023-05-23T04:28:27.782Z,14.30
2023-05-23T04:30:58.488Z,14.30
2023-05-23T04:33:30.525Z,14.30
2023-05-23T04:35:58.962Z,14.30
2023-05-23T04:38:27.782Z,14.30
2023-05-23T04:40:58.021Z,14.40
2023-05-23T04:43:46.082Z,14.40
2023-05-23T04:46:36.550Z,14.30
2023-05-23T04:49:14.546Z,14.30
2023-05-23T04:51:43.112Z,14.30
2023-05-23T04:54:27.964Z,14.20
2023-05-23T04:56:57.584Z,14.20
2023-05-23T04:59:27.764Z,14.20
2023-05-23T05:01:57.500Z,14.00
2023-05-23T05:04:26.130Z,14.10
2023-05-23T05:06:54.578Z,14.00
2023-05-23T05:09:23.089Z,14.20
2023-05-23T05:11:52.583Z,14.30
2023-05-23T05:14:21.953Z,14.20
2023-05-23T05:16:50.794Z,14.30
2023-05-23T05:19:20.976Z,14.30
2023-05-23T05:21:49.488Z,14.40
2023-05-23T05:24:17.753Z,14.40
2023-05-23T05:26:47.654Z,14.40
2023-05-23T05:29:16.101Z,14.40
2023-05-23T05:31:45.345Z,14.60
2023-05-23T05:34:13.739Z,14.70
2023-05-23T05:36:47.894Z,14.90
2023-05-23T05:39:18.151Z,14.90
2023-05-23T05:41:46.527Z,14.90
2023-05-23T05:44:15.909Z,14.80
2023-05-23T05:46:45.224Z,14.70
2023-05-23T05:49:13.591Z,14.80
2023-05-23T05:51:44.684Z,14.90
2023-05-23T05:54:14.358Z,14.80
2023-05-23T05:56:43.382Z,14.80
2023-05-23T05:59:12.473Z,14.90
2023-05-23T06:01:42.251Z,14.80
2023-05-23T06:04:10.709Z,14.60
2023-05-23T06:06:39.934Z,14.70
2023-05-23T06:09:10.707Z,14.70
2023-05-23T06:11:41.108Z,14.80
2023-05-23T06:14:09.827Z,14.70
2023-05-23T06:16:42.376Z,14.70
2023-05-23T06:19:10.913Z,14.60
2023-05-23T06:21:40.826Z,14.60
2023-05-23T06:24:13.017Z,14.60
2023-05-23T06:26:42.826Z,14.70
2023-05-23T06:29:11.131Z,14.60
2023-05-23T06:31:39.720Z,14.60
2023-05-23T06:34:08.088Z,14.50
2023-05-23T06:36:36.483Z,14.60
2023-05-23T06:39:04.958Z,14.50
2023-05-23T06:41:34.685Z,14.40
2023-05-23T06:44:03.067Z,14.50
2023-05-23T06:46:32.948Z,14.50
2023-05-23T06:49:13.584Z,14.50
2023-05-23T06:51:43.281Z,14.60
2023-05-23T06:54:12.677Z,14.60
2023-05-23T06:56:42.467Z,14.50
2023-05-23T06:59:11.058Z,14.60
2023-05-23T07:01:40.462Z,14.40
2023-05-23T07:04:09.356Z,14.50
2023-05-23T07:06:39.898Z,14.50
2023-05-23T07:09:11.810Z,14.70
2023-05-23T07:11:42.491Z,14.80
2023-05-23T07:14:11.787Z,14.70
2023-05-23T07:16:46.180Z,14.60
2023-05-23T07:19:14.767Z,14.60
2023-05-23T07:21:49.566Z,14.60
2023-05-23T07:24:19.835Z,14.50
2023-05-23T07:26:50.586Z,14.40
2023-05-23T07:29:19.330Z,14.40
2023-05-23T07:31:49.579Z,14.20
2023-05-23T07:34:18.883Z,14.20
2023-05-23T07:36:57.483Z,14.20
2023-05-23T07:39:28.167Z,14.40
2023-05-23T07:42:00.538Z,14.60
2023-05-23T07:44:30.129Z,14.90
2023-05-23T07:46:58.782Z,15.30
2023-05-23T07:49:27.728Z,15.40
2023-05-23T07:51:56.588Z,15.60
2023-05-23T07:54:24.938Z,15.70
2023-05-23T07:56:57.548Z,16.00
2023-05-23T07:59:30.114Z,16.30
2023-05-23T08:01:59.313Z,16.40
2023-05-23T08:04:28.463Z,16.80
2023-05-23T08:09:36.893Z,17.00
2023-05-23T08:12:06.119Z,16.80
2023-05-23T08:14:49.921Z,16.40
2023-05-23T08:17:46.502Z,16.10
2023-05-23T08:20:14.983Z,15.70
2023-05-23T08:22:43.703Z,15.60
2023-05-23T08:25:12.100Z,15.90
2023-05-23T08:27:42.099Z,16.00
2023-05-23T08:30:41.030Z,16.10
2023-05-23T08:33:09.752Z,16.20
2023-05-23T08:35:41.673Z,16.40
2023-05-23T08:38:12.252Z,16.40
2023-05-23T08:40:52.217Z,16.60
2023-05-23T08:43:22.022Z,16.90
2023-05-23T08:45:53.570Z,16.80
2023-05-23T08:48:24.440Z,16.40
2023-05-23T08:50:54.675Z,16.30
2023-05-23T08:53:28.161Z,16.40
2023-05-23T08:56:04.484Z,16.40
2023-05-23T08:58:43.071Z,16.20
2023-05-23T09:01:14.838Z,16.00
2023-05-23T09:03:43.564Z,15.90
2023-05-23T09:06:27.537Z,15.90
2023-05-23T09:08:56.259Z,16.00
2023-05-23T09:11:26.439Z,16.20
2023-05-23T09:13:56.041Z,16.20
2023-05-23T09:16:33.919Z,16.20
2023-05-23T09:19:12.498Z,16.60
2023-05-23T09:21:44.788Z,16.60
2023-05-23T09:24:42.675Z,16.50
2023-05-23T09:27:12.079Z,16.70
2023-05-23T09:29:40.959Z,16.60
2023-05-23T09:32:14.431Z,16.60
2023-05-23T09:34:43.896Z,16.60
2023-05-23T09:37:19.349Z,16.90
2023-05-23T09:39:49.446Z,17.20
2023-05-23T09:42:22.627Z,17.40
2023-05-23T09:44:51.342Z,17.90
2023-05-23T09:47:21.078Z,18.40
2023-05-23T09:49:49.612Z,18.30
2023-05-23T09:52:20.116Z,18.60
2023-05-23T09:54:48.884Z,18.60
2023-05-23T09:57:17.794Z,18.50
2023-05-23T09:59:54.086Z,19.00
2023-05-23T10:02:49.739Z,19.10
2023-05-23T10:05:32.084Z,18.90
2023-05-23T10:08:03.146Z,18.80
2023-05-23T10:10:34.081Z,19.00
2023-05-23T10:13:05.278Z,19.00
2023-05-23T10:15:40.130Z,19.10
2023-05-23T10:18:17.656Z,19.00
2023-05-23T10:20:50.870Z,18.60
2023-05-23T10:23:21.232Z,18.50
2023-05-23T10:25:50.093Z,18.40
2023-05-23T10:28:18.514Z,18.40
2023-05-23T10:30:47.954Z,18.30
2023-05-23T10:33:18.517Z,18.30
2023-05-23T10:35:54.798Z,18.00
2023-05-23T10:38:34.085Z,18.00
2023-05-23T10:41:11.066Z,18.00
2023-05-23T10:43:46.219Z,17.70
2023-05-23T10:46:15.269Z,17.50
2023-05-23T10:48:45.954Z,17.50
2023-05-23T10:51:15.460Z,17.60
2023-05-23T10:53:46.550Z,17.90
2023-05-23T10:56:23.439Z,18.10
2023-05-23T10:58:55.012Z,18.20
2023-05-23T11:01:24.287Z,18.60
2023-05-23T11:03:56.009Z,18.50
2023-05-23T11:06:33.445Z,18.40
2023-05-23T11:09:07.767Z,18.30
2023-05-23T11:11:55.084Z,18.40
2023-05-23T11:14:34.868Z,18.10
2023-05-23T11:17:17.116Z,18.00
2023-05-23T11:20:00.866Z,18.30
2023-05-23T11:22:30.736Z,18.70
2023-05-23T11:25:00.245Z,19.00
2023-05-23T11:27:30.374Z,19.20
2023-05-23T11:30:04.117Z,19.10
2023-05-23T11:32:33.758Z,18.90
2023-05-23T11:35:04.483Z,19.20
2023-05-23T11:37:33.012Z,19.40
2023-05-23T11:40:21.603Z,19.40
2023-05-23T11:42:50.566Z,19.10
2023-05-23T11:45:21.006Z,19.10
2023-05-23T11:47:49.408Z,19.40
2023-05-23T11:50:20.481Z,19.50
2023-05-23T11:52:51.790Z,19.40
2023-05-23T11:55:21.338Z,19.20
2023-05-23T11:57:50.313Z,19.20
2023-05-23T12:00:19.937Z,19.20
2023-05-23T12:02:49.068Z,19.40
2023-05-23T12:05:18.926Z,19.70
2023-05-23T12:07:48.941Z,19.50
2023-05-23T12:10:19.896Z,19.50
2023-05-23T12:12:48.354Z,19.50
2023-05-23T12:15:16.700Z,19.70
2023-05-23T12:17:46.301Z,19.60
2023-05-23T12:20:15.204Z,19.60
2023-05-23T12:22:44.949Z,19.40
2023-05-23T12:25:13.325Z,19.20
2023-05-23T12:27:44.233Z,19.20
2023-05-23T12:30:16.455Z,19.20
2023-05-23T12:32:47.394Z,19.10
2023-05-23T12:35:16.681Z,19.20
2023-05-23T12:37:48.566Z,19.20
2023-05-23T12:40:18.173Z,19.30
2023-05-23T12:42:51.681Z,19.50
2023-05-23T12:45:20.338Z,19.80
2023-05-23T12:47:49.456Z,20.00
2023-05-23T12:50:19.261Z,20.00
2023-05-23T12:52:48.937Z,20.10
2023-05-23T12:55:17.324Z,20.30
2023-05-23T12:57:45.631Z,20.50
2023-05-23T13:00:15.121Z,20.90
2023-05-23T13:02:43.502Z,21.10
2023-05-23T13:05:12.369Z,21.00
2023-05-23T13:07:41.269Z,20.70
2023-05-23T13:10:12.099Z,20.60
2023-05-23T13:12:40.477Z,20.40
2023-05-23T13:15:10.079Z,20.30
2023-05-23T13:17:38.553Z,20.30
2023-05-23T13:20:09.427Z,20.20
2023-05-23T13:22:37.828Z,20.20
2023-05-23T13:25:07.393Z,20.50
2023-05-23T13:27:37.135Z,20.10
2023-05-23T13:30:07.411Z,20.30
2023-05-23T13:32:35.969Z,20.10
2023-05-23T13:35:04.569Z,20.20
2023-05-23T13:37:32.994Z,20.50
2023-05-23T13:40:04.435Z,20.50
2023-05-23T13:42:33.075Z,20.40
2023-05-23T13:45:02.713Z,20.30
2023-05-23T13:47:31.243Z,20.30
2023-05-23T13:49:59.522Z,20.60
2023-05-23T13:52:27.886Z,20.70
2023-05-23T13:54:56.182Z,20.80
2023-05-23T13:57:24.529Z,20.80
2023-05-23T13:59:52.879Z,20.90
2023-05-23T14:02:22.791Z,20.70
2023-05-23T14:04:51.421Z,20.80
2023-05-23T14:07:20.505Z,21.00
2023-05-23T14:09:48.915Z,21.20
2023-05-23T14:12:17.221Z,21.40
2023-05-23T14:14:45.627Z,21.40
2023-05-23T14:17:17.103Z,21.10
2023-05-23T14:19:47.508Z,21.30
2023-05-23T14:22:16.141Z,21.30
2023-05-23T14:24:44.411Z,21.00
2023-05-23T14:27:12.831Z,20.90
2023-05-23T14:29:41.623Z,21.00
2023-05-23T14:32:10.077Z,21.00
2023-05-23T14:34:38.417Z,20.80
2023-05-23T14:37:08.181Z,20.90
2023-05-23T14:39:36.899Z,20.90
2023-05-23T14:42:05.902Z,20.80
2023-05-23T14:44:34.466Z,20.50
2023-05-23T14:47:02.796Z,20.10
2023-05-23T14:49:31.084Z,20.00
2023-05-23T14:51:59.413Z,20.10
2023-05-23T14:54:29.077Z,20.30
2023-05-23T14:56:57.882Z,20.30
2023-05-23T14:59:26.197Z,20.30
2023-05-23T15:01:54.825Z,20.30
2023-05-23T15:04:24.253Z,20.00
2023-05-23T15:06:52.860Z,19.50
2023-05-23T15:09:21.769Z,19.40
2023-05-23T15:11:51.601Z,19.30
2023-05-23T15:14:19.940Z,19.20
2023-05-23T15:16:48.972Z,19.50
2023-05-23T15:19:17.573Z,19.90
2023-05-23T15:21:51.088Z,20.10
2023-05-23T15:24:20.203Z,20.60
2023-05-23T15:26:48.855Z,20.80
2023-05-23T15:29:19.722Z,20.70
2023-05-23T15:31:48.246Z,20.90
2023-05-23T15:34:16.731Z,21.00
2023-05-23T15:36:45.083Z,20.80
2023-05-23T15:39:13.606Z,20.60
2023-05-23T15:41:41.945Z,20.80
2023-05-23T15:44:12.077Z,20.50
2023-05-23T15:46:44.017Z,20.10
2023-05-23T15:49:25.227Z,20.30
2023-05-23T15:51:55.704Z,20.30
2023-05-23T15:54:24.112Z,20.20
2023-05-23T15:56:52.468Z,20.10
2023-05-23T15:59:21.146Z,20.00
2023-05-23T16:01:50.935Z,20.10
2023-05-23T16:04:19.469Z,20.10
2023-05-23T16:06:47.867Z,19.90
2023-05-23T16:09:16.280Z,20.00
2023-05-23T16:11:44.554Z,19.90
2023-05-23T16:14:12.975Z,19.70
2023-05-23T16:16:41.336Z,19.80
2023-05-23T16:19:11.243Z,19.80
2023-05-23T16:21:39.619Z,19.70
2023-05-23T16:24:08.122Z,19.50
2023-05-23T16:26:36.476Z,19.50
2023-05-23T16:29:04.760Z,19.50
2023-05-23T16:31:33.076Z,19.80
2023-05-23T16:34:01.721Z,19.90
2023-05-23T16:36:31.422Z,19.60
2023-05-23T16:38:59.755Z,19.70
2023-05-23T16:41:28.110Z,19.60
2023-05-23T16:43:56.565Z,19.70
2023-05-23T16:46:24.896Z,19.80
2023-05-23T16:48:53.295Z,19.70
2023-05-23T16:51:21.699Z,19.50
2023-05-23T16:53:51.591Z,19.30
2023-05-23T16:56:19.914Z,19.20
2023-05-23T16:58:48.285Z,18.80
2023-05-23T17:01:17.167Z,18.70
2023-05-23T17:03:45.682Z,18.50
2023-05-23T17:06:14.343Z,18.50
2023-05-23T17:08:42.725Z,18.80
2023-05-23T17:11:12.660Z,18.90
2023-05-23T17:13:41.458Z,19.10
2023-05-23T17:16:11.054Z,19.20
2023-05-23T17:18:39.419Z,19.20
2023-05-23T17:21:07.764Z,18.80
2023-05-23T17:23:36.115Z,18.70
2023-05-23T17:26:04.411Z,18.50
2023-05-23T17:28:34.515Z,18.30
2023-05-23T17:31:02.822Z,18.20
2023-05-23T17:33:31.148Z,18.10
2023-05-23T17:36:00.553Z,18.00
2023-05-23T17:38:29.032Z,17.80
2023-05-23T17:40:57.373Z,17.90
2023-05-23T17:43:25.772Z,17.90
2023-05-23T17:45:57.967Z,17.80
2023-05-23T17:48:38.710Z,17.90
2023-05-23T17:51:14.664Z,17.90
2023-05-23T17:53:43.357Z,17.80
2023-05-23T17:56:12.051Z,17.80
2023-05-23T17:58:42.579Z,17.60
2023-05-23T18:01:14.421Z,17.30
2023-05-23T18:03:42.810Z,17.10
2023-05-23T18:06:11.119Z,17.10
2023-05-23T18:08:39.458Z,17.10
2023-05-23T18:11:07.903Z,17.00
2023-05-23T18:13:36.189Z,16.90
2023-05-23T18:16:04.553Z,16.80
2023-05-23T18:18:34.629Z,16.80
2023-05-23T18:21:03.483Z,16.60
2023-05-23T18:23:31.979Z,16.60
2023-05-23T18:26:00.397Z,16.40
2023-05-23T18:28:28.725Z,16.50
2023-05-23T18:30:57.207Z,16.40
2023-05-23T18:33:27.644Z,16.40
2023-05-23T18:35:57.507Z,16.30
2023-05-23T18:38:27.509Z,16.10
2023-05-23T18:40:55.935Z,15.90
2023-05-23T18:43:24.322Z,15.80
2023-05-23T18:45:52.644Z,15.60
2023-05-23T18:48:21.635Z,15.60
2023-05-23T18:50:49.969Z,15.50
2023-05-23T18:53:19.696Z,15.40
2023-05-23T18:55:48.138Z,15.40
2023-05-23T18:58:16.586Z,15.20
2023-05-23T19:00:45.297Z,15.10
2023-05-23T19:03:14.595Z,15.10
2023-05-23T19:05:43.120Z,15.10
2023-05-23T19:08:11.397Z,15.10
2023-05-23T19:10:41.861Z,15.00
2023-05-23T19:13:10.575Z,15.10
2023-05-23T19:15:38.928Z,15.00
2023-05-23T19:18:07.748Z,14.90
2023-05-23T19:20:36.279Z,14.80
2023-05-23T19:23:04.994Z,14.80
2023-05-23T19:25:33.265Z,14.70
2023-05-23T19:28:03.086Z,14.50
2023-05-23T19:30:31.465Z,14.40
2023-05-23T19:33:01.375Z,14.50
2023-05-23T19:35:29.837Z,14.40
2023-05-23T19:37:58.295Z,14.30
2023-05-23T19:40:26.617Z,14.30
2023-05-23T19:42:55.007Z,14.20
2023-05-23T19:45:24.858Z,14.20
2023-05-23T19:47:53.214Z,14.10
2023-05-23T19:50:22.542Z,13.90
2023-05-23T19:52:51.367Z,13.90
2023-05-23T19:55:19.795Z,13.90
2023-05-23T19:57:48.314Z,13.90
2023-05-23T20:00:17.532Z,13.70
2023-05-23T20:02:47.386Z,13.60
2023-05-23T20:05:16.388Z,13.50
2023-05-23T20:07:44.724Z,13.40
2023-05-23T20:10:14.129Z,13.40
2023-05-23T20:12:42.579Z,13.30
2023-05-23T20:15:11.960Z,13.20
2023-05-23T20:17:40.506Z,13.10
2023-05-23T20:20:11.680Z,13.20
2023-05-23T20:22:40.161Z,12.90
2023-05-23T20:25:10.227Z,12.80
2023-05-23T20:27:38.607Z,12.80
2023-05-23T20:30:08.424Z,12.80
2023-05-23T20:32:36.948Z,12.90
2023-05-23T20:35:06.005Z,12.90
2023-05-23T20:37:35.819Z,12.80
2023-05-23T20:40:04.253Z,12.80
2023-05-23T20:42:32.764Z,12.70
2023-05-23T20:45:01.247Z,12.70
2023-05-23T20:47:30.257Z,12.60
2023-05-23T20:49:58.675Z,12.60
2023-05-23T20:52:27.024Z,12.40
2023-05-23T20:54:56.826Z,12.40
2023-05-23T20:57:25.214Z,12.30
2023-05-23T20:59:53.627Z,12.20
2023-05-23T21:02:22.002Z,12.10
2023-05-23T21:04:50.659Z,12.10
2023-05-23T21:07:19.010Z,11.90
2023-05-23T21:09:47.339Z,11.90
2023-05-23T21:12:17.082Z,11.90
2023-05-23T21:14:46.237Z,11.90
2023-05-23T21:17:15.966Z,11.90
2023-05-23T21:19:44.350Z,11.70
2023-05-23T21:22:12.891Z,11.70
2023-05-23T21:24:41.394Z,11.70
2023-05-23T21:27:09.759Z,11.70
2023-05-23T21:29:39.519Z,11.70
2023-05-23T21:32:07.971Z,11.60
2023-05-23T21:34:36.311Z,11.60
2023-05-23T21:37:04.990Z,11.60
2023-05-23T21:39:47.056Z,11.60
2023-05-23T21:42:19.726Z,11.50
2023-05-23T21:44:49.617Z,11.40
2023-05-23T21:47:18.205Z,11.40
2023-05-23T21:49:46.703Z,11.20
2023-05-23T21:52:15.119Z,11.10
2023-05-23T21:54:43.520Z,11.10
2023-05-23T21:57:11.929Z,11.00
2023-05-23T21:59:41.503Z,10.90
2023-05-23T22:02:11.447Z,11.00
2023-05-23T22:04:39.862Z,10.80
2023-05-23T22:07:08.196Z,10.70
2023-05-23T22:09:36.604Z,10.80
2023-05-23T22:12:05.450Z,10.70
2023-05-23T22:14:33.947Z,10.60
2023-05-23T22:17:04.250Z,10.50
2023-05-23T22:19:34.144Z,10.40
2023-05-23T22:22:02.564Z,10.40
2023-05-23T22:24:31.262Z,10.40
2023-05-23T22:27:00.730Z,10.40
2023-05-23T22:29:29.044Z,10.40
2023-05-23T22:31:57.592Z,10.30
2023-05-23T22:34:26.160Z,10.30
2023-05-23T22:36:57.548Z,10.30
2023-05-23T22:39:27.433Z,10.20
2023-05-23T22:41:55.787Z,10.20
2023-05-23T22:44:24.128Z,10.10
2023-05-23T22:46:53.094Z,10.10
2023-05-23T22:49:22.312Z,10.10
2023-05-23T22:51:50.729Z,10.00
2023-05-23T22:54:20.556Z,10.00
2023-05-23T22:56:48.983Z,9.90
2023-05-23T22:59:17.331Z,9.90
2023-05-23T23:01:46.414Z,9.80
2023-05-23T23:04:14.884Z,9.80
2023-05-23T23:06:44.445Z,9.70
2023-05-23T23:09:12.859Z,9.60
2023-05-23T23:11:42.660Z,9.60
2023-05-23T23:14:11.288Z,9.60
2023-05-23T23:16:39.744Z,9.60
2023-05-23T23:19:08.074Z,9.60
2023-05-23T23:21:37.668Z,9.60
2023-05-23T23:24:07.918Z,9.50
2023-05-23T23:26:36.459Z,9.50
2023-05-23T23:29:06.349Z,9.40
2023-05-23T23:31:34.712Z,9.40
2023-05-23T23:34:03.118Z,9.30
2023-05-23T23:36:31.659Z,9.20
2023-05-23T23:39:00.135Z,9.20
2023-05-23T23:41:28.477Z,9.10
2023-05-23T23:43:56.821Z,9.00
2023-05-23T23:46:26.900Z,9.00
2023-05-23T23:48:55.370Z,8.90
2023-05-23T23:51:23.643Z,8.90
2023-05-23T23:53:53.442Z,8.80
2023-05-23T23:56:24.699Z,8.80
2023-05-23T23:58:53.148Z,8.80
